Time;durP1;ratioP1;P1;durP2;ratioP2;P2;SDS_P1;SDS_P2;PMS_P1;PMS_P2;Temp;Humidity;BMP_temperature;BMP_pressure;BME280_temperature;BME280_humidity;BME280_pressure;Samples;Min_cycle;Max_cycle;Signal;HPM_P1;HPM_P2
2022/02/13 00:02:09;;;;;;;5.10;2.58;;;-0.90;99.90;;;;;;6218639;23;20149;-64
2022/02/13 00:04:34;;;;;;;7.93;2.38;;;-0.80;99.90;;;;;;6218617;23;20160;-64
2022/02/13 00:07:00;;;;;;;2.38;1.77;;;-0.80;99.90;;;;;;6219323;23;20246;-64
2022/02/13 00:09:28;;;;;;;3.35;1.92;;;-0.80;99.90;;;;;;6192158;23;20149;-63
2022/02/13 00:11:53;;;;;;;3.47;2.00;;;-0.80;99.90;;;;;;6218322;23;20227;-64
2022/02/13 00:14:19;;;;;;;3.58;1.80;;;-0.80;99.90;;;;;;6218148;23;20145;-64
2022/02/13 00:16:44;;;;;;;3.67;2.08;;;-0.80;99.90;;;;;;6218211;23;20437;-64
2022/02/13 00:19:10;;;;;;;5.15;2.10;;;-0.80;99.90;;;;;;6218242;23;20141;-65
2022/02/13 00:21:35;;;;;;;7.78;2.30;;;-0.80;99.90;;;;;;6218482;23;20149;-65
2022/02/13 00:24:01;;;;;;;3.60;2.00;;;-0.80;99.90;;;;;;6218653;23;20199;-64
2022/02/13 00:26:26;;;;;;;3.63;2.22;;;-0.80;99.90;;;;;;6221502;23;20219;-65
2022/02/13 00:28:52;;;;;;;3.67;2.30;;;-0.80;99.90;;;;;;6220329;23;20584;-65
2022/02/13 00:31:17;;;;;;;4.07;2.00;;;-0.80;99.90;;;;;;6226005;23;20608;-64
2022/02/13 00:33:43;;;;;;;2.85;1.90;;;-0.80;99.90;;;;;;6227874;23;20149;-64
2022/02/13 00:36:08;;;;;;;3.53;2.25;;;-0.80;99.90;;;;;;6230717;23;20149;-65
2022/02/13 00:38:34;;;;;;;4.47;2.22;;;-0.80;99.90;;;;;;6228885;23;20141;-64
2022/02/13 00:41:00;;;;;;;6.15;2.25;;;-0.80;99.90;;;;;;6229703;23;20180;-64
2022/02/13 00:43:25;;;;;;;6.47;2.45;;;-0.80;99.90;;;;;;6229274;23;20148;-65
2022/02/13 00:45:51;;;;;;;3.42;2.28;;;-0.80;99.90;;;;;;6229187;23;20145;-64
2022/02/13 00:48:17;;;;;;;2.95;2.20;;;-0.80;99.90;;;;;;6227784;23;20141;-64
2022/02/13 00:50:45;;;;;;;5.15;2.45;;;-0.70;99.90;;;;;;6229526;23;20161;-64
2022/02/13 00:53:11;;;;;;;5.13;2.00;;;-0.70;99.90;;;;;;6229240;23;20141;-64
2022/02/13 00:55:36;;;;;;;4.35;1.95;;;-0.70;99.90;;;;;;6226411;23;20179;-64
2022/02/13 00:58:02;;;;;;;4.65;2.25;;;-0.70;99.90;;;;;;6221854;23;20203;-64
2022/02/13 01:00:27;;;;;;;4.75;2.10;;;-0.70;99.90;;;;;;6220990;23;20425;-64
2022/02/13 01:02:53;;;;;;;7.13;2.80;;;-0.70;99.90;;;;;;6223845;23;20141;-64
2022/02/13 01:05:18;;;;;;;4.95;2.40;;;-0.70;99.90;;;;;;6225011;23;20145;-64
2022/02/13 01:07:44;;;;;;;6.25;2.53;;;-0.70;99.90;;;;;;6223379;23;20271;-64
2022/02/13 01:10:10;;;;;;;7.93;2.28;;;-0.70;99.90;;;;;;6222595;23;20164;-64
2022/02/13 01:12:36;;;;;;;5.88;2.45;;;-0.70;99.90;;;;;;6222363;23;20168;-64
2022/02/13 01:15:02;;;;;;;4.47;2.40;;;-0.60;99.90;;;;;;6220888;23;20141;-64
2022/02/13 01:17:27;;;;;;;5.43;2.85;;;-0.50;99.90;;;;;;6223124;23;20152;-64
2022/02/13 01:19:53;;;;;;;7.90;3.03;;;-0.50;99.90;;;;;;6222874;23;20137;-64
2022/02/13 01:22:18;;;;;;;5.35;2.63;;;-0.50;99.90;;;;;;6223895;23;20493;-64
2022/02/13 01:24:44;;;;;;;8.65;2.63;;;-0.50;99.90;;;;;;6233233;23;20141;-64
2022/02/13 01:27:12;;;;;;;4.00;2.17;;;-0.40;99.90;;;;;;6234672;23;20146;-65
2022/02/13 01:29:37;;;;;;;5.32;2.45;;;-0.40;99.90;;;;;;6235099;23;20156;-65
2022/02/13 01:32:03;;;;;;;5.60;2.72;;;-0.30;99.90;;;;;;6235989;23;20173;-64
2022/02/13 01:34:29;;;;;;;5.13;2.75;;;-0.30;99.90;;;;;;6237357;23;20145;-65
2022/02/13 01:36:54;;;;;;;5.93;2.47;;;-0.20;99.90;;;;;;6237118;23;20156;-64
2022/02/13 01:39:20;;;;;;;5.82;2.83;;;-0.20;99.90;;;;;;6235862;23;20151;-65
2022/02/13 01:41:49;;;;;;;6.22;2.80;;;-0.20;99.90;;;;;;6238695;23;20168;-65
2022/02/13 01:44:28;;;;;;;7.38;2.65;;;-0.10;99.90;;;;;;6231244;23;20188;-64
2022/02/13 01:46:54;;;;;;;5.25;3.03;;;-0.10;99.90;;;;;;6233840;23;20137;-64
2022/02/13 01:49:19;;;;;;;5.97;2.78;;;0.00;99.90;;;;;;6235798;23;20167;-64
2022/02/13 01:51:45;;;;;;;5.85;2.85;;;0.10;99.90;;;;;;6224354;23;20169;-64
2022/02/13 01:54:11;;;;;;;6.88;2.65;;;0.10;99.90;;;;;;6218246;23;20145;-64
2022/02/13 01:56:39;;;;;;;7.05;2.58;;;0.10;99.90;;;;;;6216806;23;20145;-64
2022/02/13 01:59:06;;;;;;;6.45;2.97;;;0.10;99.90;;;;;;6217241;23;20596;-64
2022/02/13 02:01:32;;;;;;;5.57;2.70;;;0.10;99.90;;;;;;6217148;23;20152;-64
2022/02/13 02:03:57;;;;;;;4.45;2.30;;;0.10;99.90;;;;;;6217108;23;20228;-64
2022/02/13 02:06:23;;;;;;;5.35;2.72;;;0.20;99.90;;;;;;6217163;23;20251;-64
2022/02/13 02:08:48;;;;;;;5.63;2.80;;;0.20;99.90;;;;;;6216869;23;20149;-64
2022/02/13 02:11:14;;;;;;;5.18;2.92;;;0.30;99.90;;;;;;6216982;23;20231;-64
2022/02/13 02:13:39;;;;;;;4.43;2.25;;;0.30;99.90;;;;;;6215639;23;20562;-64
2022/02/13 02:16:05;;;;;;;2.92;2.22;;;0.30;99.90;;;;;;6216508;23;20572;-64
2022/02/13 02:18:30;;;;;;;4.85;2.50;;;0.30;99.90;;;;;;6215203;23;20140;-64
2022/02/13 02:21:02;;;;;;;5.30;2.50;;;0.30;99.90;;;;;;6216579;23;20160;-64
2022/02/13 02:23:28;;;;;;;4.93;2.60;;;0.40;99.90;;;;;;6216408;23;20125;-64
2022/02/13 02:25:53;;;;;;;4.25;3.00;;;0.40;99.90;;;;;;6218287;23;20457;-64
2022/02/13 02:28:19;;;;;;;3.50;2.70;;;0.40;99.90;;;;;;6191546;23;20164;-63
2022/02/13 02:30:45;;;;;;;8.15;2.75;;;0.50;99.90;;;;;;6217426;23;20177;-63
2022/02/13 02:33:14;;;;;;;7.32;2.83;;;0.50;99.90;;;;;;6217362;23;20161;-64
2022/02/13 02:35:40;;;;;;;6.55;2.67;;;0.50;99.90;;;;;;6217235;23;20195;-64
2022/02/13 02:38:05;;;;;;;4.72;2.90;;;0.50;99.90;;;;;;6216649;23;20557;-64
2022/02/13 02:40:31;;;;;;;4.75;2.80;;;0.50;99.90;;;;;;6217989;23;20141;-63
2022/02/13 02:42:56;;;;;;;5.95;3.00;;;0.40;99.90;;;;;;6218873;23;20145;-63
2022/02/13 02:45:22;;;;;;;4.97;2.97;;;0.40;99.90;;;;;;6218858;23;20145;-63
2022/02/13 02:47:48;;;;;;;7.47;3.40;;;0.40;99.90;;;;;;6219809;23;20141;-63
2022/02/13 02:50:14;;;;;;;6.20;2.72;;;0.40;99.90;;;;;;6220760;23;20561;-63
2022/02/13 02:52:40;;;;;;;4.47;3.28;;;0.40;99.90;;;;;;6217706;23;20145;-64
2022/02/13 02:55:06;;;;;;;4.95;2.70;;;0.30;99.90;;;;;;6217692;23;20152;-64
2022/02/13 02:57:32;;;;;;;5.88;2.90;;;0.30;99.90;;;;;;6217898;23;20176;-63
2022/02/13 02:59:58;;;;;;;5.15;2.60;;;0.20;99.90;;;;;;6216831;23;20137;-64
2022/02/13 03:02:24;;;;;;;5.80;2.80;;;0.30;99.90;;;;;;6215971;23;20141;-64
2022/02/13 03:04:50;;;;;;;5.03;2.58;;;0.20;99.90;;;;;;6216723;23;20145;-63
2022/02/13 03:07:15;;;;;;;5.28;3.00;;;0.20;99.90;;;;;;6216110;23;20176;-63
2022/02/13 03:09:42;;;;;;;4.03;2.67;;;0.10;99.90;;;;;;6216167;23;20149;-64
2022/02/13 03:12:07;;;;;;;7.75;2.92;;;0.10;99.90;;;;;;6216061;23;20164;-64
2022/02/13 03:14:33;;;;;;;4.78;2.80;;;0.10;99.90;;;;;;6216219;23;20588;-64
2022/02/13 03:17:01;;;;;;;6.15;3.17;;;0.10;99.90;;;;;;6216376;23;20160;-64
2022/02/13 03:19:26;;;;;;;6.85;3.17;;;0.00;99.90;;;;;;6216127;23;20553;-64
2022/02/13 03:21:52;;;;;;;5.03;3.15;;;0.00;99.90;;;;;;6214884;23;20260;-64
2022/02/13 03:24:17;;;;;;;6.22;3.30;;;0.00;99.90;;;;;;6215512;23;20219;-64
2022/02/13 03:26:43;;;;;;;6.50;2.75;;;0.00;99.90;;;;;;6215140;23;20145;-64
2022/02/13 03:29:08;;;;;;;7.57;3.80;;;-0.10;99.90;;;;;;6216128;23;20581;-64
2022/02/13 03:31:34;;;;;;;6.32;3.20;;;-0.10;99.90;;;;;;6215769;23;20191;-64
2022/02/13 03:33:59;;;;;;;6.20;3.10;;;-0.10;99.90;;;;;;6216166;23;20168;-64
2022/02/13 03:36:25;;;;;;;4.55;3.10;;;0.00;99.90;;;;;;6215722;23;20208;-63
2022/02/13 03:38:50;;;;;;;5.25;2.83;;;0.00;99.90;;;;;;6216485;23;20160;-64
2022/02/13 03:41:16;;;;;;;4.43;3.20;;;0.00;99.90;;;;;;6215678;23;20155;-64
2022/02/13 03:43:41;;;;;;;6.97;3.42;;;-0.10;99.90;;;;;;6215987;23;20446;-63
2022/02/13 03:46:07;;;;;;;5.10;3.17;;;-0.10;99.90;;;;;;6215826;23;20149;-63
2022/02/13 03:48:32;;;;;;;7.82;3.40;;;-0.10;99.90;;;;;;6215930;23;20140;-64
2022/02/13 03:50:58;;;;;;;7.85;3.10;;;-0.10;99.90;;;;;;6215677;23;20648;-63
2022/02/13 03:53:23;;;;;;;6.43;3.33;;;-0.10;99.90;;;;;;6214533;23;20160;-64
2022/02/13 03:55:49;;;;;;;5.90;2.80;;;-0.10;99.90;;;;;;6214664;23;20152;-64
2022/02/13 03:58:14;;;;;;;6.05;3.20;;;-0.10;99.90;;;;;;6217048;23;20137;-64
2022/02/13 04:00:40;;;;;;;4.95;3.40;;;-0.10;99.90;;;;;;6214699;23;20500;-64
2022/02/13 04:03:05;;;;;;;7.43;3.83;;;-0.10;99.90;;;;;;6216003;23;20554;-63
2022/02/13 04:05:31;;;;;;;5.70;3.45;;;-0.20;99.90;;;;;;6216307;23;20144;-63
2022/02/13 04:07:56;;;;;;;5.82;3.05;;;-0.20;99.90;;;;;;6216420;23;20156;-63
2022/02/13 04:10:22;;;;;;;6.00;3.40;;;-0.20;99.90;;;;;;6216203;23;20456;-64
2022/02/13 04:12:47;;;;;;;8.38;3.25;;;-0.20;99.90;;;;;;6215949;23;20141;-63
2022/02/13 04:15:13;;;;;;;5.35;3.33;;;-0.20;99.90;;;;;;6215849;23;20137;-64
2022/02/13 04:17:39;;;;;;;7.03;2.65;;;-0.10;99.90;;;;;;6215668;23;20145;-64
2022/02/13 04:20:05;;;;;;;7.40;3.70;;;-0.10;99.90;;;;;;6215691;23;20141;-63
2022/02/13 04:22:31;;;;;;;5.97;3.70;;;-0.10;99.90;;;;;;6215718;23;20227;-64
2022/02/13 04:24:56;;;;;;;4.70;3.00;;;-0.10;99.90;;;;;;6217391;23;20557;-63
2022/02/13 04:27:22;;;;;;;6.70;3.22;;;-0.10;99.90;;;;;;6217673;23;20157;-63
2022/02/13 04:29:47;;;;;;;5.18;3.22;;;-0.20;99.90;;;;;;6215579;23;20145;-64
2022/02/13 04:32:13;;;;;;;5.80;3.58;;;-0.20;99.90;;;;;;6215561;23;20484;-64
2022/02/13 04:34:38;;;;;;;5.53;3.22;;;-0.20;99.90;;;;;;6214946;23;20153;-63
2022/02/13 04:37:04;;;;;;;7.38;3.42;;;-0.30;99.90;;;;;;6215904;23;20553;-63
2022/02/13 04:39:29;;;;;;;5.78;3.50;;;-0.30;99.90;;;;;;6214703;23;20141;-63
2022/02/13 04:41:55;;;;;;;5.70;2.78;;;-0.30;99.90;;;;;;6215759;23;20149;-63
2022/02/13 04:44:20;;;;;;;7.20;3.10;;;-0.30;99.90;;;;;;6216177;23;20204;-64
2022/02/13 04:46:46;;;;;;;5.65;3.40;;;-0.40;99.90;;;;;;6190716;23;20156;-64
2022/02/13 04:49:11;;;;;;;6.60;3.35;;;-0.40;99.90;;;;;;6218408;23;20195;-63
2022/02/13 04:51:37;;;;;;;5.18;3.22;;;-0.40;99.90;;;;;;6217935;23;20181;-63
2022/02/13 04:54:03;;;;;;;5.40;3.10;;;-0.40;99.90;;;;;;6217978;23;20446;-63
2022/02/13 04:56:28;;;;;;;4.43;3.03;;;-0.40;99.90;;;;;;6218129;23;20157;-63
2022/02/13 04:58:54;;;;;;;6.88;3.28;;;-0.50;99.90;;;;;;6217696;23;20546;-63
2022/02/13 05:01:19;;;;;;;6.97;3.58;;;-0.50;99.90;;;;;;6217623;23;20448;-63
2022/02/13 05:03:45;;;;;;;7.47;3.35;;;-0.50;99.90;;;;;;6218168;23;20155;-63
2022/02/13 05:06:11;;;;;;;5.38;3.58;;;-0.50;99.90;;;;;;6217511;23;20145;-63
2022/02/13 05:08:37;;;;;;;5.20;3.60;;;-0.50;99.90;;;;;;6217773;23;20145;-63
2022/02/13 05:11:02;;;;;;;6.93;3.67;;;-0.50;99.90;;;;;;6217366;23;20172;-63
2022/02/13 05:13:28;;;;;;;5.65;3.50;;;-0.50;99.90;;;;;;6217169;23;20141;-63
2022/02/13 05:15:53;;;;;;;6.30;3.83;;;-0.50;99.90;;;;;;6217684;23;20149;-64
2022/02/13 05:18:19;;;;;;;6.25;3.60;;;-0.50;99.90;;;;;;6217478;23;20553;-63
2022/02/13 05:20:44;;;;;;;7.03;3.78;;;-0.40;99.90;;;;;;6218102;23;20156;-64
2022/02/13 05:23:10;;;;;;;4.95;3.38;;;-0.50;99.90;;;;;;6217270;23;20666;-64
2022/02/13 05:25:35;;;;;;;8.13;3.63;;;-0.50;99.90;;;;;;6217635;23;20141;-63
2022/02/13 05:28:01;;;;;;;7.93;3.83;;;-0.50;99.90;;;;;;6217295;23;20141;-64
2022/02/13 05:30:27;;;;;;;6.75;3.90;;;-0.50;99.90;;;;;;6217314;23;20223;-64
2022/02/13 05:32:52;;;;;;;7.18;3.53;;;-0.50;99.90;;;;;;6217220;23;20530;-64
2022/02/13 05:35:18;;;;;;;8.18;4.15;;;-0.50;99.90;;;;;;6217758;23;20137;-64
2022/02/13 05:37:43;;;;;;;6.43;3.50;;;-0.60;99.90;;;;;;6217794;23;20171;-64
2022/02/13 05:40:09;;;;;;;8.38;4.10;;;-0.60;99.90;;;;;;6217618;23;20149;-64
2022/02/13 05:42:35;;;;;;;6.60;3.78;;;-0.60;99.90;;;;;;6215847;23;20152;-65
2022/02/13 05:45:01;;;;;;;6.80;4.00;;;-0.60;99.90;;;;;;6217203;23;20577;-64
2022/02/13 05:47:26;;;;;;;9.15;4.03;;;-0.60;99.90;;;;;;6219324;23;20175;-64
2022/02/13 05:49:52;;;;;;;6.30;4.00;;;-0.60;99.90;;;;;;6221238;23;20199;-63
2022/02/13 05:52:18;;;;;;;9.73;4.28;;;-0.60;99.90;;;;;;6217282;23;20169;-64
2022/02/13 05:54:44;;;;;;;8.60;4.15;;;-0.60;99.90;;;;;;6217202;23;20148;-64
2022/02/13 05:57:09;;;;;;;5.38;3.60;;;-0.60;99.90;;;;;;6217394;23;20141;-64
2022/02/13 05:59:35;;;;;;;8.15;3.63;;;-0.60;99.90;;;;;;6216570;23;20152;-64
2022/02/13 06:02:00;;;;;;;6.97;4.18;;;-0.70;99.90;;;;;;6216089;23;20151;-65
2022/02/13 06:04:26;;;;;;;6.78;4.22;;;-0.70;99.90;;;;;;6217078;23;20145;-64
2022/02/13 06:06:53;;;;;;;9.10;3.83;;;-0.70;99.90;;;;;;6216006;23;20141;-64
2022/02/13 06:09:19;;;;;;;8.90;4.05;;;-0.70;99.90;;;;;;6217098;23;20581;-65
2022/02/13 06:11:45;;;;;;;7.05;4.07;;;-0.80;99.90;;;;;;6217211;23;20168;-64
2022/02/13 06:14:11;;;;;;;7.03;4.03;;;-0.80;99.90;;;;;;6217132;23;20141;-64
2022/02/13 06:16:37;;;;;;;9.20;4.35;;;-0.80;99.90;;;;;;6217132;23;20416;-64
2022/02/13 06:19:04;;;;;;;5.70;4.05;;;-0.80;99.90;;;;;;6217186;23;20164;-65
2022/02/13 06:21:29;;;;;;;6.90;4.15;;;-0.80;99.90;;;;;;6217266;23;20198;-65
2022/02/13 06:23:55;;;;;;;10.98;4.57;;;-0.80;99.90;;;;;;6217051;23;20414;-64
2022/02/13 06:26:20;;;;;;;8.77;5.03;;;-0.90;99.90;;;;;;6216928;23;20141;-64
2022/02/13 06:28:46;;;;;;;5.78;4.13;;;-0.80;99.90;;;;;;6217084;23;20203;-65
2022/02/13 06:31:12;;;;;;;10.07;4.70;;;-0.80;99.90;;;;;;6215858;23;20180;-64
2022/02/13 06:33:38;;;;;;;9.57;4.18;;;-0.90;99.90;;;;;;6220473;23;20153;-64
2022/02/13 06:36:03;;;;;;;7.13;4.47;;;-0.90;99.90;;;;;;6220043;23;20223;-64
2022/02/13 06:38:29;;;;;;;7.93;4.05;;;-0.80;99.90;;;;;;6220819;23;20443;-64
2022/02/13 06:40:55;;;;;;;6.30;3.97;;;-0.90;99.90;;;;;;6219672;23;20140;-64
2022/02/13 06:43:20;;;;;;;9.27;5.32;;;-0.90;99.90;;;;;;6219360;23;20149;-64
2022/02/13 06:45:46;;;;;;;10.38;4.45;;;-0.90;99.90;;;;;;6219200;23;20438;-64
2022/02/13 06:48:11;;;;;;;8.15;4.57;;;-0.80;99.90;;;;;;6191595;23;20510;-64
2022/02/13 06:50:37;;;;;;;8.68;4.60;;;-0.80;99.90;;;;;;6216731;23;20168;-64
2022/02/13 06:53:03;;;;;;;7.40;4.60;;;-0.80;99.90;;;;;;6215709;23;20438;-63
2022/02/13 06:55:29;;;;;;;8.57;4.68;;;-0.70;99.90;;;;;;6218598;23;20168;-64
2022/02/13 06:57:55;;;;;;;8.57;4.63;;;-0.70;99.90;;;;;;6217052;23;20141;-64
2022/02/13 07:00:21;;;;;;;8.30;4.60;;;-0.70;99.90;;;;;;6220282;23;20152;-64
2022/02/13 07:02:47;;;;;;;8.95;5.03;;;-0.60;99.90;;;;;;6216746;23;20468;-64
2022/02/13 07:05:13;;;;;;;8.98;5.03;;;-0.60;99.90;;;;;;6217350;23;20188;-64
2022/02/13 07:07:39;;;;;;;9.40;4.80;;;-0.50;99.90;;;;;;6218574;23;20140;-64
2022/02/13 07:10:07;;;;;;;7.80;5.05;;;-0.50;99.90;;;;;;6191533;23;20145;-63
2022/02/13 07:12:32;;;;;;;9.50;4.38;;;-0.40;99.90;;;;;;6217697;23;20246;-64
2022/02/13 07:14:58;;;;;;;6.20;4.15;;;-0.30;99.90;;;;;;6216697;23;20480;-64
2022/02/13 07:17:24;;;;;;;6.28;4.18;;;-0.30;99.90;;;;;;6217854;23;20464;-64
2022/02/13 07:19:50;;;;;;;8.93;4.78;;;-0.20;99.90;;;;;;6216620;23;20144;-64
2022/02/13 07:22:15;;;;;;;8.15;5.05;;;-0.10;99.90;;;;;;6215159;23;20207;-64
2022/02/13 07:24:41;;;;;;;6.03;4.32;;;-0.10;99.90;;;;;;6215083;23;20152;-64
2022/02/13 07:27:08;;;;;;;6.40;4.57;;;0.00;99.90;;;;;;6216402;23;20149;-64
2022/02/13 07:29:34;;;;;;;6.60;4.05;;;0.10;99.90;;;;;;6216645;23;20145;-64
2022/02/13 07:31:59;;;;;;;8.00;4.72;;;0.20;99.90;;;;;;6216161;23;20208;-64
2022/02/13 07:34:25;;;;;;;7.18;4.35;;;0.30;99.90;;;;;;6216593;23;20562;-64
2022/02/13 07:36:54;;;;;;;7.70;4.93;;;0.40;99.90;;;;;;6216704;23;20152;-64
2022/02/13 07:39:20;;;;;;;8.23;4.75;;;0.50;99.90;;;;;;6216988;23;20148;-63
2022/02/13 07:41:46;;;;;;;6.50;4.43;;;0.50;99.90;;;;;;6217987;23;20156;-65
2022/02/13 07:44:12;;;;;;;6.60;4.20;;;0.60;99.90;;;;;;6220848;23;20215;-65
2022/02/13 07:46:37;;;;;;;9.25;4.78;;;0.60;99.90;;;;;;6219848;23;20601;-64
2022/02/13 07:49:05;;;;;;;8.27;4.65;;;0.70;99.90;;;;;;6219267;23;20523;-64
2022/02/13 07:51:32;;;;;;;6.65;4.00;;;0.80;99.90;;;;;;6220349;23;20183;-64
2022/02/13 07:53:58;;;;;;;7.75;4.55;;;0.80;99.90;;;;;;6219225;23;20157;-64
2022/02/13 07:56:23;;;;;;;7.22;4.50;;;0.90;99.90;;;;;;6219697;23;20145;-65
2022/02/13 07:58:49;;;;;;;7.22;4.53;;;1.00;99.90;;;;;;6219944;23;20596;-64
2022/02/13 08:01:17;;;;;;;6.85;4.45;;;1.00;99.90;;;;;;6222470;23;20174;-64
2022/02/13 08:03:43;;;;;;;7.15;4.40;;;1.00;99.90;;;;;;6221319;23;20199;-64
2022/02/13 08:06:09;;;;;;;10.32;4.20;;;1.10;99.90;;;;;;6220779;23;20141;-64
2022/02/13 08:08:37;;;;;;;7.53;4.90;;;1.10;99.90;;;;;;6220361;23;20148;-63
2022/02/13 08:11:06;;;;;;;6.75;4.43;;;1.20;99.90;;;;;;6220889;23;20203;-64
2022/02/13 08:13:32;;;;;;;6.22;4.45;;;1.20;99.90;;;;;;6221245;23;20238;-63
2022/02/13 08:15:57;;;;;;;6.32;4.70;;;1.20;99.90;;;;;;6220368;23;20201;-63
2022/02/13 08:18:23;;;;;;;7.22;4.35;;;1.30;99.90;;;;;;6220276;23;20191;-64
2022/02/13 08:20:49;;;;;;;7.72;4.40;;;1.30;99.90;;;;;;6220269;23;20149;-63
2022/02/13 08:23:15;;;;;;;8.27;4.68;;;1.30;99.90;;;;;;6221097;23;20168;-63
2022/02/13 08:25:41;;;;;;;7.00;4.40;;;1.30;99.90;;;;;;6221884;23;20140;-63
2022/02/13 08:28:07;;;;;;;6.35;4.55;;;1.30;99.90;;;;;;6221763;23;20265;-64
2022/02/13 08:30:33;;;;;;;6.85;4.53;;;1.30;99.90;;;;;;6219422;23;20160;-64
2022/02/13 08:32:58;;;;;;;7.22;4.45;;;1.40;99.90;;;;;;6218466;23;20133;-64
2022/02/13 08:35:25;;;;;;;8.10;4.25;;;1.40;99.90;;;;;;6218421;23;20147;-63
2022/02/13 08:37:50;;;;;;;7.50;4.38;;;1.50;99.90;;;;;;6218991;23;20224;-64
2022/02/13 08:40:16;;;;;;;7.22;4.45;;;1.50;99.90;;;;;;6218653;23;20160;-63
2022/02/13 08:42:41;;;;;;;7.85;4.75;;;1.60;99.90;;;;;;6220476;23;20145;-64
2022/02/13 08:45:07;;;;;;;6.45;4.30;;;1.70;99.90;;;;;;6218683;23;20141;-64
2022/02/13 08:47:33;;;;;;;8.55;4.35;;;1.70;99.90;;;;;;6218812;23;20227;-64
2022/02/13 08:49:58;;;;;;;6.35;4.35;;;1.80;99.90;;;;;;6219587;23;20231;-63
2022/02/13 08:52:24;;;;;;;7.45;4.47;;;1.90;99.90;;;;;;6218929;23;20440;-65
2022/02/13 08:54:49;;;;;;;5.43;4.00;;;1.90;99.90;;;;;;6218134;23;20145;-64
2022/02/13 08:57:15;;;;;;;6.20;4.00;;;2.00;99.90;;;;;;6220005;23;20147;-63
2022/02/13 08:59:40;;;;;;;8.57;4.05;;;2.00;99.90;;;;;;6220684;23;20145;-64
2022/02/13 09:02:06;;;;;;;7.85;4.20;;;2.10;99.90;;;;;;6217848;23;20525;-64
2022/02/13 09:04:32;;;;;;;8.90;4.30;;;2.10;99.90;;;;;;6230490;23;20436;-65
2022/02/13 09:07:01;;;;;;;6.15;4.13;;;2.20;99.90;;;;;;6218083;23;20211;-64
2022/02/13 09:09:28;;;;;;;8.15;4.32;;;2.30;99.90;;;;;;6218029;23;20463;-64
2022/02/13 09:11:53;;;;;;;7.82;4.07;;;2.30;99.90;;;;;;6218156;23;20172;-64
2022/02/13 09:14:19;;;;;;;9.98;4.15;;;2.40;99.90;;;;;;6218814;23;20485;-64
2022/02/13 09:16:45;;;;;;;7.22;4.32;;;2.50;99.90;;;;;;6218387;23;20156;-64
2022/02/13 09:19:11;;;;;;;6.57;4.20;;;2.60;99.90;;;;;;6217784;23;20148;-64
2022/02/13 09:21:37;;;;;;;7.47;4.22;;;2.60;99.90;;;;;;6218191;23;20176;-64
2022/02/13 09:24:02;;;;;;;6.03;3.88;;;2.70;99.90;;;;;;6217049;23;20151;-64
2022/02/13 09:26:28;;;;;;;5.53;3.45;;;2.80;99.90;;;;;;6219926;23;20153;-64
2022/02/13 09:28:54;;;;;;;6.43;4.18;;;2.90;99.90;;;;;;6222256;23;20222;-64
2022/02/13 09:31:19;;;;;;;6.43;4.18;;;2.90;99.90;;;;;;6218778;23;20188;-64
2022/02/13 09:33:45;;;;;;;6.35;4.07;;;3.00;99.90;;;;;;6218059;23;20164;-64
2022/02/13 09:36:12;;;;;;;5.95;4.10;;;3.00;99.90;;;;;;6217520;23;20152;-65
2022/02/13 09:38:38;;;;;;;6.32;4.00;;;3.10;99.90;;;;;;6217888;23;20546;-64
2022/02/13 09:41:05;;;;;;;5.05;3.55;;;3.20;99.90;;;;;;6217776;23;20147;-64
2022/02/13 09:43:30;;;;;;;6.28;4.18;;;3.30;99.90;;;;;;6216808;23;20141;-64
2022/02/13 09:45:57;;;;;;;5.68;3.83;;;3.30;99.90;;;;;;6217919;23;20145;-64
2022/02/13 09:48:27;;;;;;;5.47;3.70;;;3.40;99.90;;;;;;6218312;23;20152;-64
2022/02/13 09:50:54;;;;;;;6.13;4.13;;;3.50;99.90;;;;;;6217762;23;20153;-64
2022/02/13 09:53:21;;;;;;;7.03;3.78;;;3.60;99.90;;;;;;6216394;23;20190;-64
2022/02/13 09:55:46;;;;;;;5.00;4.10;;;3.70;99.90;;;;;;6216673;23;20140;-64
2022/02/13 09:58:12;;;;;;;5.35;3.70;;;3.80;99.90;;;;;;6217334;23;20152;-64
2022/02/13 10:01:01;;;;;;;5.15;3.50;;;3.80;99.90;;;;;;6217822;23;20530;-64
2022/02/13 10:03:28;;;;;;;5.70;3.80;;;3.80;99.90;;;;;;6216953;23;20141;-63
2022/02/13 10:05:56;;;;;;;6.13;3.85;;;3.90;99.90;;;;;;6217383;23;20179;-64
2022/02/13 10:09:04;;;;;;;5.88;3.95;;;4.00;99.90;;;;;;6217212;23;20151;-63
2022/02/13 10:11:34;;;;;;;4.93;3.88;;;4.00;99.90;;;;;;6215940;23;20173;-64
2022/02/13 10:14:10;;;;;;;4.95;3.83;;;4.10;99.90;;;;;;6217364;23;20454;-64
2022/02/13 10:16:37;;;;;;;5.47;3.75;;;4.20;99.90;;;;;;6218030;23;20129;-63
2022/02/13 10:19:08;;;;;;;6.18;3.65;;;4.40;99.90;;;;;;6217099;23;20198;-63
2022/02/13 10:21:44;;;;;;;5.72;3.67;;;4.50;99.90;;;;;;6218762;23;20137;-63
2022/02/13 10:24:18;;;;;;;7.47;3.90;;;4.50;99.90;;;;;;6218324;23;20140;-63
2022/02/13 10:26:45;;;;;;;6.25;3.78;;;4.50;99.90;;;;;;6218818;23;20148;-64
2022/02/13 10:29:11;;;;;;;5.60;3.70;;;4.50;99.90;;;;;;6218334;23;20145;-63
2022/02/13 10:31:40;;;;;;;4.75;3.70;;;4.50;99.90;;;;;;6217870;23;20176;-64
2022/02/13 10:34:06;;;;;;;6.28;3.92;;;4.60;99.90;;;;;;6216327;23;20151;-64
2022/02/13 10:36:39;;;;;;;7.15;4.05;;;4.70;99.90;;;;;;6216807;23;20224;-64
2022/02/13 10:39:17;;;;;;;4.97;3.80;;;4.70;99.90;;;;;;6216014;23;20152;-63
2022/02/13 10:41:42;;;;;;;5.10;3.45;;;4.70;99.90;;;;;;6216244;23;20129;-63
2022/02/13 10:44:08;;;;;;;4.68;3.40;;;4.70;99.90;;;;;;6216939;23;20151;-63
2022/02/13 10:46:41;;;;;;;5.70;3.45;;;4.70;99.90;;;;;;6217232;23;20160;-63
2022/02/13 10:49:09;;;;;;;4.80;3.63;;;4.80;99.90;;;;;;6217305;23;20206;-63
2022/02/13 10:51:34;;;;;;;5.72;3.92;;;4.90;99.90;;;;;;6217431;23;20171;-63
2022/02/13 10:54:07;;;;;;;4.57;3.40;;;4.90;99.90;;;;;;6216801;23;20145;-63
2022/02/13 10:56:35;;;;;;;5.95;3.90;;;5.00;99.90;;;;;;6217156;23;20481;-63
2022/02/13 10:59:01;;;;;;;7.20;3.95;;;5.10;99.90;;;;;;6216884;23;20410;-63
2022/02/13 11:01:28;;;;;;;8.00;4.75;;;5.10;99.90;;;;;;6216657;23;20146;-63
2022/02/13 11:04:03;;;;;;;5.10;3.80;;;5.20;99.90;;;;;;6215164;23;20167;-63
2022/02/13 11:06:30;;;;;;;7.13;4.10;;;5.20;99.90;;;;;;6216571;23;20128;-63
2022/02/13 11:09:12;;;;;;;6.60;4.00;;;5.30;99.90;;;;;;6216925;23;20145;-63
2022/02/13 11:11:39;;;;;;;5.57;4.30;;;5.30;99.90;;;;;;6216538;23;20156;-63
2022/02/13 11:14:05;;;;;;;7.70;4.80;;;5.40;99.90;;;;;;6217214;23;20141;-64
2022/02/13 11:16:36;;;;;;;6.13;3.65;;;5.50;99.90;;;;;;6216696;23;20167;-64
2022/02/13 11:19:03;;;;;;;6.60;4.03;;;5.50;99.90;;;;;;6217817;23;20141;-64
2022/02/13 11:21:30;;;;;;;7.25;4.00;;;5.60;99.90;;;;;;6216986;23;20199;-64
2022/02/13 11:23:57;;;;;;;6.63;4.25;;;5.60;99.90;;;;;;6219355;23;20140;-64
2022/02/13 11:26:43;;;;;;;5.55;3.42;;;5.70;99.90;;;;;;6221851;23;20169;-64
2022/02/13 11:29:14;;;;;;;6.55;4.03;;;5.80;99.90;;;;;;6220866;23;20549;-64
2022/02/13 11:31:50;;;;;;;6.40;4.00;;;5.90;99.90;;;;;;6221487;23;20180;-63
2022/02/13 11:34:27;;;;;;;4.78;3.70;;;6.00;99.90;;;;;;6221328;23;20125;-64
2022/02/13 11:36:56;;;;;;;6.10;4.30;;;6.00;99.90;;;;;;6220067;23;20148;-64
2022/02/13 11:39:34;;;;;;;5.70;3.70;;;6.10;99.90;;;;;;6219550;23;20141;-64
2022/02/13 11:42:09;;;;;;;6.25;3.95;;;6.20;99.90;;;;;;6221474;23;20164;-63
2022/02/13 11:44:46;;;;;;;6.82;4.28;;;6.30;99.90;;;;;;6221996;23;20220;-63
2022/02/13 11:47:40;;;;;;;5.93;3.50;;;6.40;99.90;;;;;;6220718;23;20161;-64
2022/02/13 11:50:11;;;;;;;6.07;3.95;;;6.40;99.90;;;;;;6220370;23;20138;-64
2022/02/13 11:52:41;;;;;;;5.57;4.05;;;6.50;99.90;;;;;;6221004;23;20211;-64
2022/02/13 11:55:17;;;;;;;6.03;4.20;;;6.60;99.90;;;;;;6220147;23;20195;-64
2022/02/13 11:58:09;;;;;;;5.78;4.25;;;6.60;99.90;;;;;;6222365;23;20135;-64
2022/02/13 12:00:38;;;;;;;6.32;4.20;;;6.70;99.90;;;;;;6221620;23;20197;-64
2022/02/13 12:03:18;;;;;;;8.32;4.13;;;6.70;99.90;;;;;;6220707;23;20421;-64
2022/02/13 12:05:51;;;;;;;7.40;3.67;;;6.80;99.90;;;;;;6218931;23;20538;-63
2022/02/13 12:08:22;;;;;;;5.60;3.70;;;6.80;99.90;;;;;;6222511;23;20183;-64
2022/02/13 12:10:47;;;;;;;5.07;3.70;;;6.80;99.90;;;;;;6218568;23;20475;-64
2022/02/13 12:13:15;;;;;;;6.72;3.58;;;6.80;99.90;;;;;;6218138;23;20224;-64
2022/02/13 12:15:50;;;;;;;6.55;3.65;;;6.90;99.90;;;;;;6218152;23;20429;-65
2022/02/13 12:18:15;;;;;;;6.43;4.05;;;6.90;99.90;;;;;;6218181;23;20133;-65
2022/02/13 12:20:42;;;;;;;6.40;4.15;;;6.90;99.90;;;;;;6218021;23;20367;-64
2022/02/13 12:23:10;;;;;;;5.22;3.92;;;6.90;99.90;;;;;;6216552;23;20141;-64
2022/02/13 12:25:37;;;;;;;6.07;3.78;;;6.90;99.90;;;;;;6217430;23;20565;-65
2022/02/13 12:28:05;;;;;;;6.32;3.95;;;6.80;99.90;;;;;;6217616;23;20224;-64
2022/02/13 12:30:31;;;;;;;4.32;3.38;;;6.80;99.90;;;;;;6217079;23;20149;-64
2022/02/13 12:32:59;;;;;;;5.47;4.07;;;6.80;99.90;;;;;;6217504;23;20149;-65
2022/02/13 12:35:35;;;;;;;7.60;3.90;;;6.70;99.90;;;;;;6217576;23;20230;-65
2022/02/13 12:38:02;;;;;;;5.80;3.83;;;6.70;99.90;;;;;;6217579;23;20559;-64
2022/02/13 12:40:33;;;;;;;6.32;4.20;;;6.70;99.90;;;;;;6217658;23;20549;-65
2022/02/13 12:43:08;;;;;;;6.35;4.00;;;6.70;99.90;;;;;;6217952;23;20562;-65
2022/02/13 12:45:36;;;;;;;5.38;3.75;;;6.70;99.90;;;;;;6191499;23;20452;-64
2022/02/13 12:48:07;;;;;;;5.80;3.90;;;6.70;99.90;;;;;;6217770;23;20607;-65
2022/02/13 12:50:36;;;;;;;6.20;3.75;;;6.70;99.90;;;;;;6217935;23;20138;-64
2022/02/13 12:53:08;;;;;;;6.22;3.55;;;6.70;99.90;;;;;;6216207;23;20142;-65